Time;durP1;ratioP1;P1;durP2;ratioP2;P2;SDS_P1;SDS_P2;PMS_P1;PMS_P2;Temp;Humidity;BMP_temperature;BMP_pressure;BME280_temperature;BME280_humidity;BME280_pressure;Samples;Min_cycle;Max_cycle;Signal;HPM_P1;HPM_P2
2021/09/21 00:01:03;;;;;;;4.45;3.42;;;15.50;88.50;;;;;;5107695;28;20138;-73
2021/09/21 00:03:30;;;;;;;6.22;3.63;;;15.50;88.50;;;;;;5099090;28;20077;-73
2021/09/21 00:05:55;;;;;;;6.00;3.38;;;15.40;88.40;;;;;;5100586;28;20032;-74
2021/09/21 00:08:21;;;;;;;4.88;3.35;;;15.40;88.70;;;;;;5101415;28;20044;-74
2021/09/21 00:10:47;;;;;;;4.10;3.33;;;15.30;89.00;;;;;;5115158;28;20031;-74
2021/09/21 00:13:12;;;;;;;4.43;3.53;;;15.40;89.30;;;;;;5127703;27;20465;-74
2021/09/21 00:15:38;;;;;;;6.20;3.70;;;15.30;88.30;;;;;;5095636;28;20355;-73
2021/09/21 00:18:03;;;;;;;6.22;3.60;;;15.30;88.20;;;;;;5105091;28;20470;-73
2021/09/21 00:20:29;;;;;;;6.75;3.70;;;15.30;88.80;;;;;;5100233;28;20451;-73
2021/09/21 00:22:55;;;;;;;5.03;3.55;;;15.40;88.00;;;;;;5110814;28;20028;-73
2021/09/21 00:25:20;;;;;;;5.13;3.47;;;15.30;87.50;;;;;;5092969;28;20111;-73
2021/09/21 00:27:47;;;;;;;5.65;3.78;;;15.30;87.70;;;;;;5101512;28;20066;-73
2021/09/21 00:30:15;;;;;;;4.47;3.42;;;15.30;87.80;;;;;;5102337;28;20036;-73
2021/09/21 00:32:44;;;;;;;5.45;3.50;;;15.30;88.60;;;;;;5144254;27;20040;-73
2021/09/21 00:35:10;;;;;;;4.32;3.50;;;15.30;88.30;;;;;;5096965;28;20511;-73
2021/09/21 00:37:37;;;;;;;3.97;3.28;;;15.20;88.70;;;;;;5108361;28;20024;-74
2021/09/21 00:40:04;;;;;;;4.57;3.22;;;15.10;88.00;;;;;;5137555;27;20028;-73
2021/09/21 00:42:31;;;;;;;8.88;4.03;;;15.00;87.70;;;;;;5100685;28;20024;-73
2021/09/21 00:45:06;;;;;;;5.38;3.88;;;15.00;87.70;;;;;;5094892;28;20055;-74
2021/09/21 00:47:32;;;;;;;6.15;3.67;;;15.00;87.40;;;;;;5103881;28;20536;-74
2021/09/21 00:49:58;;;;;;;6.88;3.30;;;15.10;87.80;;;;;;5104575;28;20457;-73
2021/09/21 00:52:25;;;;;;;4.88;3.60;;;15.10;87.10;;;;;;5141243;27;20019;-73
2021/09/21 00:54:51;;;;;;;4.97;3.63;;;15.10;87.90;;;;;;5094602;28;20052;-73
2021/09/21 00:57:16;;;;;;;5.00;3.60;;;15.00;87.80;;;;;;5144160;27;20032;-73
2021/09/21 00:59:43;;;;;;;6.07;3.88;;;15.00;88.70;;;;;;5135280;27;20487;-73
2021/09/21 01:02:09;;;;;;;6.88;3.80;;;14.90;88.90;;;;;;5101328;28;20024;-73
2021/09/21 01:04:38;;;;;;;4.45;3.58;;;14.90;89.10;;;;;;5094713;28;20039;-74
2021/09/21 01:07:04;;;;;;;5.22;3.70;;;14.90;88.10;;;;;;5109217;28;20777;-73
2021/09/21 01:09:30;;;;;;;5.70;3.60;;;14.80;87.60;;;;;;5100288;28;20016;-73
2021/09/21 01:11:57;;;;;;;5.88;4.15;;;14.80;88.50;;;;;;5104368;28;20145;-73
2021/09/21 01:14:24;;;;;;;5.30;3.35;;;14.70;88.60;;;;;;5095922;28;20527;-73
2021/09/21 01:16:51;;;;;;;4.03;3.40;;;14.70;88.00;;;;;;5098967;28;20094;-72
2021/09/21 01:19:17;;;;;;;5.15;3.83;;;14.70;88.00;;;;;;5109291;28;20031;-73
2021/09/21 01:21:45;;;;;;;4.70;3.80;;;14.70;87.80;;;;;;5134271;27;20024;-73
2021/09/21 01:24:12;;;;;;;5.88;4.40;;;14.80;89.20;;;;;;5099244;28;20032;-74
2021/09/21 01:26:38;;;;;;;4.97;3.58;;;14.70;89.20;;;;;;5095647;28;20055;-73
2021/09/21 01:29:04;;;;;;;4.85;3.65;;;14.70;89.50;;;;;;5143062;27;20793;-74
2021/09/21 01:31:30;;;;;;;6.03;3.97;;;14.60;89.90;;;;;;5132715;27;20034;-73
2021/09/21 01:33:59;;;;;;;4.95;3.88;;;14.60;89.30;;;;;;5103597;28;20103;-73
2021/09/21 01:36:25;;;;;;;6.30;4.15;;;14.60;89.10;;;;;;5130426;27;20050;-73
2021/09/21 01:38:51;;;;;;;5.35;3.80;;;14.60;88.90;;;;;;5108495;28;20130;-73
2021/09/21 01:41:18;;;;;;;5.93;3.85;;;14.50;89.10;;;;;;5130687;27;20050;-73
2021/09/21 01:43:45;;;;;;;5.75;3.72;;;14.50;89.00;;;;;;5108863;28;20128;-73
2021/09/21 01:46:15;;;;;;;8.40;3.75;;;14.50;89.10;;;;;;5100625;28;20407;-73
2021/09/21 01:48:41;;;;;;;8.35;4.00;;;14.60;89.40;;;;;;5108269;28;20031;-73
2021/09/21 01:51:12;;;;;;;5.75;3.95;;;14.40;90.20;;;;;;5094774;28;20047;-73
2021/09/21 01:54:02;;;;;;;4.47;3.65;;;14.40;90.30;;;;;;5110063;28;20068;-73
2021/09/21 01:59:11;;;;;;;5.93;4.07;;;14.30;89.30;;;;;;5096583;28;20023;-73
2021/09/21 02:01:37;;;;;;;6.28;4.32;;;14.30;89.20;;;;;;5105656;28;20024;-73
2021/09/21 02:04:07;;;;;;;5.97;4.10;;;14.20;89.60;;;;;;5135190;27;20089;-74
2021/09/21 02:06:38;;;;;;;5.82;4.10;;;14.20;90.20;;;;;;5097399;28;20035;-73
2021/09/21 02:09:07;;;;;;;4.55;3.80;;;14.20;90.20;;;;;;5142495;27;20250;-73
2021/09/21 02:11:33;;;;;;;5.40;3.88;;;14.20;90.00;;;;;;5099756;28;20027;-73
2021/09/21 02:14:00;;;;;;;4.53;3.95;;;14.20;90.00;;;;;;5108996;28;20027;-74
2021/09/21 02:16:29;;;;;;;6.30;4.20;;;14.20;90.00;;;;;;5132481;27;20449;-73
2021/09/21 02:18:55;;;;;;;6.32;4.15;;;14.20;90.30;;;;;;5109084;28;20032;-73
2021/09/21 02:21:21;;;;;;;5.80;4.18;;;14.10;90.50;;;;;;5130484;27;20115;-74
2021/09/21 02:23:50;;;;;;;6.03;4.15;;;14.10;90.00;;;;;;5101106;28;20024;-73
2021/09/21 02:26:16;;;;;;;5.15;4.10;;;14.10;90.40;;;;;;5103980;28;20028;-73
2021/09/21 02:28:41;;;;;;;5.22;3.97;;;14.10;90.10;;;;;;5095446;28;20028;-74
2021/09/21 02:31:07;;;;;;;7.60;4.70;;;14.10;90.40;;;;;;5144661;27;20100;-73
2021/09/21 02:33:33;;;;;;;5.38;4.07;;;14.10;90.50;;;;;;5106308;27;20035;-73
2021/09/21 02:35:59;;;;;;;5.45;4.05;;;14.00;90.50;;;;;;5101536;28;20055;-73
2021/09/21 02:38:24;;;;;;;6.35;4.20;;;14.00;90.60;;;;;;5099566;28;20063;-73
2021/09/21 02:40:50;;;;;;;5.05;4.05;;;14.00;90.50;;;;;;5108775;28;20073;-73
2021/09/21 02:43:16;;;;;;;5.10;4.13;;;14.00;90.30;;;;;;5087423;28;20070;-74
2021/09/21 02:45:42;;;;;;;5.32;3.67;;;14.00;90.30;;;;;;5086578;28;20480;-73
2021/09/21 02:48:07;;;;;;;5.10;4.03;;;14.00;90.20;;;;;;5099064;28;20164;-74
2021/09/21 02:50:33;;;;;;;5.60;4.38;;;14.00;90.00;;;;;;5106000;28;20024;-74
2021/09/21 02:52:59;;;;;;;6.28;4.03;;;14.00;89.80;;;;;;5093800;28;20035;-73
2021/09/21 02:55:25;;;;;;;6.15;3.70;;;14.10;90.10;;;;;;5105178;28;20044;-73
2021/09/21 02:57:50;;;;;;;6.22;4.47;;;14.10;88.90;;;;;;5098977;28;20035;-73
2021/09/21 03:00:21;;;;;;;5.75;3.65;;;14.10;88.60;;;;;;5099137;28;20027;-73
2021/09/21 03:02:47;;;;;;;6.43;4.22;;;14.00;88.50;;;;;;5107662;28;20023;-77
2021/09/21 03:05:17;;;;;;;5.38;4.05;;;14.10;88.80;;;;;;5094556;28;20024;-74
2021/09/21 03:08:08;;;;;;;4.70;4.07;;;14.10;88.80;;;;;;5098397;28;20040;-74
2021/09/21 03:10:48;;;;;;;5.65;3.90;;;14.20;89.10;;;;;;5098051;28;20032;-72
2021/09/21 03:18:27;;;;;;;6.13;4.30;;;14.20;88.40;;;;;;5099103;28;20438;-72
2021/09/21 03:20:53;;;;;;;6.13;3.90;;;14.10;88.10;;;;;;5095054;28;20028;-71
2021/09/21 03:23:19;;;;;;;5.50;3.90;;;14.10;88.70;;;;;;5106910;28;20373;-72
2021/09/21 03:25:45;;;;;;;5.97;4.07;;;14.10;88.30;;;;;;5091113;28;20070;-74
2021/09/21 03:28:10;;;;;;;4.82;3.90;;;14.20;87.80;;;;;;5091769;28;20051;-73
2021/09/21 03:30:36;;;;;;;5.40;3.95;;;14.20;87.30;;;;;;5092111;28;20430;-75
2021/09/21 03:33:02;;;;;;;5.07;3.92;;;14.20;87.70;;;;;;5090395;28;20472;-74
2021/09/21 03:35:28;;;;;;;5.15;3.90;;;14.20;88.40;;;;;;5092165;28;20111;-75
2021/09/21 03:37:54;;;;;;;5.60;3.75;;;14.20;87.90;;;;;;5092661;28;20484;-74
2021/09/21 03:40:19;;;;;;;5.85;3.47;;;14.20;87.20;;;;;;5096305;28;20483;-74
2021/09/21 03:42:45;;;;;;;5.18;3.88;;;14.20;86.70;;;;;;5095095;28;20021;-73
2021/09/21 03:45:11;;;;;;;4.70;3.78;;;14.20;87.20;;;;;;5094642;28;20422;-73
2021/09/21 03:47:37;;;;;;;6.20;3.97;;;14.20;86.80;;;;;;5081072;28;20033;-73
2021/09/21 03:50:04;;;;;;;6.03;4.22;;;14.20;86.70;;;;;;5091084;28;20506;-74
2021/09/21 03:52:29;;;;;;;5.10;3.75;;;14.30;87.80;;;;;;5075977;28;20029;-74
2021/09/21 03:54:55;;;;;;;7.55;3.70;;;14.30;87.90;;;;;;5073633;28;20052;-74
2021/09/21 03:57:21;;;;;;;5.65;3.90;;;14.20;86.60;;;;;;5076012;28;20066;-74
2021/09/21 03:59:47;;;;;;;4.75;3.78;;;14.20;86.70;;;;;;5074166;28;20052;-75
2021/09/21 04:02:12;;;;;;;5.55;4.15;;;14.20;86.70;;;;;;5075281;28;20021;-74
2021/09/21 04:04:38;;;;;;;7.72;3.95;;;14.30;87.40;;;;;;5075477;28;20028;-73
2021/09/21 04:07:04;;;;;;;5.80;4.22;;;14.30;87.60;;;;;;5074871;28;20032;-74
2021/09/21 04:09:30;;;;;;;7.60;4.03;;;14.20;87.00;;;;;;5075664;28;20501;-73
2021/09/21 04:11:55;;;;;;;4.38;3.78;;;14.20;86.80;;;;;;5073259;28;20028;-74
2021/09/21 04:14:21;;;;;;;4.95;3.95;;;14.20;86.80;;;;;;5074316;28;20020;-73
2021/09/21 04:16:46;;;;;;;4.95;3.90;;;14.20;86.40;;;;;;5123503;27;20043;-77
2021/09/21 04:19:12;;;;;;;6.57;4.03;;;14.20;86.50;;;;;;5079268;28;20544;-77
2021/09/21 04:21:38;;;;;;;7.90;4.30;;;14.20;86.60;;;;;;5129265;27;20376;-77
2021/09/21 04:24:04;;;;;;;6.97;3.95;;;14.20;86.70;;;;;;5095500;28;20384;-77
2021/09/21 04:26:30;;;;;;;7.30;4.32;;;14.20;86.90;;;;;;5085148;28;20024;-76
2021/09/21 04:28:56;;;;;;;6.70;4.03;;;14.20;86.30;;;;;;5074857;28;20028;-77
2021/09/21 04:31:23;;;;;;;7.45;4.05;;;14.20;86.20;;;;;;5076134;28;20032;-77
2021/09/21 04:33:51;;;;;;;8.35;4.30;;;14.20;86.10;;;;;;5074963;28;20369;-78
2021/09/21 04:36:17;;;;;;;7.20;3.97;;;14.20;85.90;;;;;;5075480;28;20396;-77
2021/09/21 04:38:43;;;;;;;5.55;4.50;;;14.20;86.00;;;;;;5095232;28;20170;-76
2021/09/21 04:41:08;;;;;;;6.35;4.07;;;14.30;86.00;;;;;;5094281;28;20145;-76
2021/09/21 04:43:37;;;;;;;6.78;4.45;;;14.30;86.00;;;;;;5095058;28;20031;-77
2021/09/21 04:46:08;;;;;;;5.50;3.80;;;14.30;86.70;;;;;;5092750;28;20111;-77
2021/09/21 04:48:34;;;;;;;5.30;3.60;;;14.30;86.00;;;;;;5082152;28;20370;-77
2021/09/21 04:51:01;;;;;;;5.45;4.00;;;14.30;86.00;;;;;;5074240;28;20090;-83
2021/09/21 04:53:27;;;;;;;6.22;4.40;;;14.30;86.50;;;;;;5092432;28;20033;-89
2021/09/21 04:55:53;;;;;;;7.03;4.38;;;14.20;86.30;;;;;;5083469;28;20048;-84
2021/09/21 04:58:18;;;;;;;5.65;4.30;;;14.30;86.50;;;;;;5096510;28;20111;-85
2021/09/21 05:00:44;;;;;;;7.38;4.30;;;14.20;86.50;;;;;;5096303;28;20075;-79
2021/09/21 05:03:10;;;;;;;6.22;4.40;;;14.20;87.10;;;;;;5096215;28;20024;-82
2021/09/21 05:05:35;;;;;;;5.07;4.32;;;14.20;86.70;;;;;;5092668;28;20039;-82
2021/09/21 05:08:01;;;;;;;6.93;4.57;;;14.10;86.50;;;;;;5074957;28;20029;-81
2021/09/21 05:10:28;;;;;;;6.00;3.67;;;14.20;88.10;;;;;;5075121;28;20115;-80
2021/09/21 05:12:54;;;;;;;6.03;4.38;;;14.20;88.30;;;;;;5075032;28;20028;-82
2021/09/21 05:15:20;;;;;;;5.45;4.40;;;14.20;88.20;;;;;;5074911;28;20021;-79
2021/09/21 05:17:45;;;;;;;5.82;4.22;;;14.10;88.20;;;;;;5074576;28;20032;-80
2021/09/21 05:20:12;;;;;;;6.00;4.43;;;14.10;88.90;;;;;;5093937;28;20073;-79
2021/09/21 05:22:38;;;;;;;5.97;4.40;;;14.20;88.80;;;;;;5095141;28;20031;-79
2021/09/21 05:25:05;;;;;;;6.90;4.00;;;14.10;89.50;;;;;;5095559;28;20026;-80
2021/09/21 05:27:31;;;;;;;6.72;4.15;;;14.20;89.00;;;;;;5095133;28;20054;-80
2021/09/21 05:29:57;;;;;;;6.28;4.40;;;14.10;89.10;;;;;;5093885;28;20536;-81
2021/09/21 05:32:22;;;;;;;5.32;4.35;;;14.10;88.90;;;;;;5094857;28;20027;-79
2021/09/21 05:34:48;;;;;;;5.70;4.25;;;14.10;89.40;;;;;;5094909;28;20427;-79
2021/09/21 05:37:14;;;;;;;6.55;4.93;;;14.20;89.20;;;;;;5094433;28;20582;-79
2021/09/21 05:39:40;;;;;;;8.15;4.53;;;14.20;89.20;;;;;;5075932;28;20570;-79
2021/09/21 05:42:05;;;;;;;6.47;4.38;;;14.20;89.10;;;;;;5075211;28;20036;-79
2021/09/21 05:44:31;;;;;;;6.88;5.10;;;14.20;89.20;;;;;;5101993;28;20088;-80
2021/09/21 05:46:57;;;;;;;5.70;4.70;;;14.20;89.10;;;;;;5114069;28;20165;-81
2021/09/21 05:49:22;;;;;;;5.95;4.30;;;14.30;89.10;;;;;;5100126;28;20354;-79
2021/09/21 05:51:48;;;;;;;5.88;4.40;;;14.30;89.70;;;;;;5128838;27;20024;-79
2021/09/21 05:54:13;;;;;;;6.22;4.45;;;14.30;88.70;;;;;;5094905;28;20028;-80
2021/09/21 05:56:39;;;;;;;5.50;4.40;;;14.30;89.20;;;;;;5095480;28;20032;-79
2021/09/21 05:59:07;;;;;;;9.65;4.55;;;14.30;89.20;;;;;;5099184;28;20119;-80
2021/09/21 06:01:34;;;;;;;7.93;4.88;;;14.30;89.20;;;;;;5107864;28;20028;-80
2021/09/21 06:04:00;;;;;;;5.35;4.22;;;14.30;89.10;;;;;;5104095;28;20023;-79
2021/09/21 06:06:26;;;;;;;7.78;4.82;;;14.40;89.20;;;;;;5104865;28;20062;-79
2021/09/21 06:08:51;;;;;;;4.82;3.97;;;14.40;88.50;;;;;;5144309;27;20040;-80
2021/09/21 06:11:20;;;;;;;6.75;4.65;;;14.40;87.80;;;;;;5134930;27;20055;-79
2021/09/21 06:13:49;;;;;;;10.23;4.35;;;14.40;87.50;;;;;;5093849;28;20089;-80
2021/09/21 06:16:17;;;;;;;7.25;4.00;;;14.40;88.10;;;;;;5093570;28;20063;-79
2021/09/21 06:18:43;;;;;;;5.88;4.10;;;14.40;88.00;;;;;;5093547;28;20544;-79
2021/09/21 06:21:08;;;;;;;5.75;4.28;;;14.40;87.60;;;;;;5105589;28;20051;-79
2021/09/21 06:23:34;;;;;;;5.82;4.65;;;14.30;87.20;;;;;;5111265;28;20041;-80
2021/09/21 06:26:00;;;;;;;6.82;4.57;;;14.40;87.30;;;;;;5100781;28;20031;-80
2021/09/21 06:28:25;;;;;;;5.88;4.70;;;14.40;87.00;;;;;;5099282;28;20129;-78
2021/09/21 06:30:51;;;;;;;6.10;4.20;;;14.40;87.30;;;;;;5092681;28;20056;-80
2021/09/21 06:33:17;;;;;;;7.65;4.57;;;14.40;88.20;;;;;;5092894;28;20024;-81
2021/09/21 06:35:42;;;;;;;5.28;4.30;;;14.50;88.00;;;;;;5093146;28;20024;-80
2021/09/21 06:38:08;;;;;;;9.27;4.70;;;14.50;88.30;;;;;;5091912;28;20122;-79
2021/09/21 06:40:34;;;;;;;7.80;4.90;;;14.50;87.40;;;;;;5092243;28;20107;-79
2021/09/21 06:43:00;;;;;;;9.10;5.03;;;14.50;87.50;;;;;;5091703;28;20452;-79
2021/09/21 06:45:25;;;;;;;8.30;4.93;;;14.60;87.50;;;;;;5091581;28;20024;-79
2021/09/21 06:47:51;;;;;;;6.75;4.75;;;14.60;87.50;;;;;;5092019;28;20032;-79
2021/09/21 06:50:17;;;;;;;7.32;4.85;;;14.70;87.20;;;;;;5092827;28;20027;-79
2021/09/21 06:52:43;;;;;;;7.80;4.78;;;14.70;87.00;;;;;;5097158;28;20032;-79
2021/09/21 06:55:11;;;;;;;7.97;4.60;;;14.80;87.00;;;;;;5112055;28;20047;-80
2021/09/21 06:57:37;;;;;;;6.47;4.50;;;14.80;87.10;;;;;;5092074;28;20028;-78
2021/09/21 07:00:05;;;;;;;5.88;4.35;;;14.90;86.40;;;;;;5097552;28;20027;-80
2021/09/21 07:02:31;;;;;;;6.43;4.53;;;14.90;86.40;;;;;;5098096;28;20468;-79
2021/09/21 07:04:57;;;;;;;7.65;4.80;;;14.90;87.20;;;;;;5094225;28;20077;-79
2021/09/21 07:07:22;;;;;;;5.47;4.30;;;14.90;86.80;;;;;;5092518;28;20039;-80
2021/09/21 07:09:48;;;;;;;6.80;4.90;;;14.90;86.90;;;;;;5092786;28;20024;-79
2021/09/21 07:12:14;;;;;;;9.50;5.25;;;15.00;86.80;;;;;;5091532;28;20028;-79
2021/09/21 07:14:40;;;;;;;6.03;4.63;;;15.00;86.30;;;;;;5093822;28;20032;-80
2021/09/21 07:17:06;;;;;;;7.53;4.40;;;14.90;86.30;;;;;;5093709;28;20024;-80
2021/09/21 07:19:31;;;;;;;8.55;5.53;;;14.90;86.00;;;;;;5095554;28;20020;-81
2021/09/21 07:21:57;;;;;;;9.07;4.88;;;15.00;87.20;;;;;;5091346;28;20738;-80
2021/09/21 07:24:23;;;;;;;7.45;4.90;;;15.00;86.80;;;;;;5111852;28;20437;-80
2021/09/21 07:26:50;;;;;;;5.40;4.22;;;15.10;86.00;;;;;;5113033;28;20460;-79
2021/09/21 07:29:16;;;;;;;6.10;4.50;;;15.10;85.60;;;;;;5097155;28;20027;-80
2021/09/21 07:31:42;;;;;;;6.15;4.28;;;15.10;85.90;;;;;;5092776;28;20024;-80
2021/09/21 07:34:08;;;;;;;7.32;4.45;;;15.20;86.50;;;;;;5092281;28;20032;-80
2021/09/21 07:36:34;;;;;;;6.22;4.75;;;15.30;85.80;;;;;;5093077;28;20423;-79
2021/09/21 07:39:00;;;;;;;8.35;4.57;;;15.30;85.60;;;;;;5092062;28;20469;-82
2021/09/21 07:41:26;;;;;;;6.05;4.38;;;15.20;85.20;;;;;;5093098;28;20024;-80
2021/09/21 07:43:52;;;;;;;11.32;4.40;;;15.20;85.40;;;;;;5092328;28;20028;-78
2021/09/21 07:46:17;;;;;;;5.63;4.40;;;15.40;86.30;;;;;;5092861;28;20024;-80
2021/09/21 07:48:44;;;;;;;6.57;4.93;;;15.40;84.70;;;;;;5092380;28;20031;-80
2021/09/21 07:51:10;;;;;;;6.68;4.63;;;15.50;84.80;;;;;;5093000;28;20039;-80
2021/09/21 07:53:35;;;;;;;7.60;5.07;;;15.50;84.30;;;;;;5097490;28;20016;-80
2021/09/21 07:56:02;;;;;;;6.45;4.72;;;15.50;84.20;;;;;;5112534;28;20052;-82
2021/09/21 07:58:27;;;;;;;6.40;4.53;;;15.60;85.90;;;;;;5113000;28;20024;-80
2021/09/21 08:00:55;;;;;;;6.63;4.47;;;15.70;85.30;;;;;;5107812;28;20437;-80
2021/09/21 08:03:22;;;;;;;9.35;4.65;;;15.70;84.90;;;;;;5086670;28;20198;-80
2021/09/21 08:05:48;;;;;;;8.68;4.60;;;15.70;84.40;;;;;;5093339;28;20031;-80
2021/09/21 08:08:16;;;;;;;7.07;4.85;;;15.70;84.90;;;;;;5091448;28;20028;-80
2021/09/21 08:10:42;;;;;;;6.95;4.07;;;15.80;84.20;;;;;;5092680;28;20085;-80
2021/09/21 08:13:08;;;;;;;7.95;4.68;;;15.80;84.10;;;;;;5092091;28;20024;-80
2021/09/21 08:15:34;;;;;;;6.28;4.85;;;15.90;83.80;;;;;;5091119;28;20035;-80
2021/09/21 08:18:01;;;;;;;8.05;4.72;;;15.90;84.30;;;;;;5089396;28;20067;-80
2021/09/21 08:20:28;;;;;;;6.60;5.00;;;16.00;83.90;;;;;;5088208;28;20024;-80
2021/09/21 08:22:55;;;;;;;5.85;4.38;;;16.00;83.40;;;;;;5072616;28;20029;-81
2021/09/21 08:25:21;;;;;;;6.70;4.35;;;16.00;83.80;;;;;;5094263;28;20388;-81
2021/09/21 08:27:47;;;;;;;7.43;5.15;;;16.10;83.10;;;;;;5108090;28;20036;-81
2021/09/21 08:30:14;;;;;;;7.28;4.68;;;16.10;83.00;;;;;;5081057;28;20051;-81
2021/09/21 08:32:40;;;;;;;6.88;4.60;;;16.20;82.30;;;;;;5095172;28;20028;-81
2021/09/21 08:35:07;;;;;;;5.60;4.25;;;16.20;80.80;;;;;;5108949;28;20046;-81
2021/09/21 08:37:34;;;;;;;9.10;4.97;;;16.20;80.10;;;;;;5116207;28;20035;-80
2021/09/21 08:40:00;;;;;;;10.07;4.45;;;16.30;81.70;;;;;;5117477;28;20031;-81
2021/09/21 08:42:26;;;;;;;5.07;4.47;;;16.30;80.50;;;;;;5094027;28;20027;-80
2021/09/21 08:44:52;;;;;;;7.30;4.53;;;16.40;80.60;;;;;;5075364;28;20020;-81
2021/09/21 08:47:19;;;;;;;6.97;4.35;;;16.50;81.20;;;;;;5085313;28;20102;-82
2021/09/21 08:49:45;;;;;;;8.27;4.75;;;16.50;79.50;;;;;;5092379;28;20074;-80
2021/09/21 08:52:11;;;;;;;5.20;4.28;;;16.50;79.50;;;;;;5096495;28;20024;-81
2021/09/21 08:54:37;;;;;;;5.32;4.30;;;16.60;80.80;;;;;;5094700;28;20040;-80
2021/09/21 08:57:03;;;;;;;6.30;4.53;;;16.60;80.70;;;;;;5095191;28;20032;-81
2021/09/21 08:59:36;;;;;;;7.72;4.35;;;16.70;79.80;;;;;;5094750;28;20032;-80
2021/09/21 09:02:10;;;;;;;6.60;4.10;;;16.70;78.20;;;;;;5097999;28;20594;-80
2021/09/21 09:04:38;;;;;;;5.07;4.00;;;16.80;76.90;;;;;;5089208;28;20036;-80
2021/09/21 09:07:06;;;;;;;6.60;4.15;;;16.90;77.00;;;;;;5089807;28;20122;-81
2021/09/21 09:09:35;;;;;;;5.45;4.13;;;16.90;77.20;;;;;;5094755;28;20117;-81
2021/09/21 09:12:03;;;;;;;4.53;3.60;;;16.90;77.00;;;;;;5095114;28;20131;-81
2021/09/21 09:14:33;;;;;;;6.88;4.13;;;16.80;75.80;;;;;;5094264;28;20023;-80
2021/09/21 09:17:10;;;;;;;5.45;4.50;;;16.70;73.30;;;;;;5094485;28;20020;-80
2021/09/21 09:19:39;;;;;;;4.63;3.85;;;16.70;74.30;;;;;;5102597;28;20032;-80
2021/09/21 09:22:17;;;;;;;6.43;3.67;;;16.60;74.40;;;;;;5106368;28;20481;-81
2021/09/21 09:24:58;;;;;;;5.35;4.10;;;16.50;75.20;;;;;;5090735;28;20024;-80
2021/09/21 09:27:44;;;;;;;5.75;4.03;;;16.50;76.90;;;;;;5091487;28;20113;-81
2021/09/21 09:30:12;;;;;;;4.60;3.47;;;16.40;75.10;;;;;;5092653;28;20048;-81
2021/09/21 09:32:48;;;;;;;4.07;3.47;;;16.40;75.90;;;;;;5137504;27;20031;-81
2021/09/21 09:35:28;;;;;;;5.40;3.75;;;16.40;74.50;;;;;;5113432;28;20027;-82
2021/09/21 09:37:55;;;;;;;4.63;3.80;;;16.40;75.10;;;;;;5095031;28;20032;-82
2021/09/21 09:40:21;;;;;;;6.75;4.15;;;16.40;75.70;;;;;;5098274;28;20047;-82
2021/09/21 09:42:49;;;;;;;4.25;3.22;;;16.30;73.80;;;;;;5107134;28;20028;-81
2021/09/21 09:45:33;;;;;;;4.65;3.22;;;16.30;72.90;;;;;;5126587;27;20032;-82
2021/09/21 09:47:59;;;;;;;5.03;3.17;;;16.30;73.30;;;;;;5106858;28;20141;-81
2021/09/21 09:50:28;;;;;;;3.75;2.95;;;16.30;72.40;;;;;;5098763;28;20650;-81
2021/09/21 09:53:12;;;;;;;5.38;3.33;;;16.30;71.00;;;;;;5079515;28;20034;-81
2021/09/21 09:55:44;;;;;;;5.25;3.50;;;16.30;68.40;;;;;;5108785;28;20127;-81
2021/09/21 09:58:10;;;;;;;4.18;3.28;;;16.30;69.60;;;;;;5094025;28;20388;-81
2021/09/21 10:00:37;;;;;;;5.28;3.50;;;16.30;68.80;;;;;;5097216;28;20054;-81
2021/09/21 10:03:04;;;;;;;4.10;3.35;;;16.30;71.10;;;;;;5149098;27;20030;-81
2021/09/21 10:05:31;;;;;;;2.65;2.35;;;16.30;72.80;;;;;;5111318;28;20077;-81
2021/09/21 10:07:57;;;;;;;3.88;3.03;;;16.40;73.40;;;;;;5093604;28;20085;-82
2021/09/21 10:10:25;;;;;;;3.63;2.67;;;16.40;70.40;;;;;;5092483;28;20020;-81
2021/09/21 10:12:51;;;;;;;5.72;3.38;;;16.30;68.80;;;;;;5093642;28;20032;-81
2021/09/21 10:15:17;;;;;;;4.10;3.28;;;16.30;68.50;;;;;;5093933;28;20021;-81
2021/09/21 10:17:59;;;;;;;4.45;3.25;;;16.30;69.20;;;;;;5094634;28;20028;-82
2021/09/21 10:20:34;;;;;;;4.00;3.10;;;16.30;69.20;;;;;;5091747;28;20040;-81
2021/09/21 10:23:00;;;;;;;4.70;3.30;;;16.30;68.10;;;;;;5092850;28;20135;-82
2021/09/21 10:25:35;;;;;;;5.40;3.47;;;16.30;67.90;;;;;;5094253;28;20024;-82
2021/09/21 10:28:09;;;;;;;4.80;3.20;;;16.30;68.30;;;;;;5096340;28;20525;-81
2021/09/21 10:30:35;;;;;;;4.70;3.17;;;16.30;69.20;;;;;;5109863;28;20080;-81
2021/09/21 10:33:01;;;;;;;5.40;3.80;;;16.30;69.60;;;;;;5100264;28;20424;-82
2021/09/21 10:35:31;;;;;;;7.78;3.80;;;16.30;71.40;;;;;;5114752;28;20091;-81
2021/09/21 10:38:07;;;;;;;8.60;4.57;;;16.50;72.30;;;;;;5099861;28;20031;-80
2021/09/21 10:40:39;;;;;;;7.22;3.58;;;16.50;69.40;;;;;;5097504;28;20035;-81
2021/09/21 10:43:20;;;;;;;;;;;16.50;69.60;;;;;;5138700;27;20115;-81
2021/09/21 10:45:46;;;;;;;4.20;3.17;;;16.50;69.50;;;;;;5090693;28;20268;-82
2021/09/21 10:48:20;;;;;;;4.43;3.50;;;16.50;69.00;;;;;;5090736;28;20024;-81
2021/09/21 10:50:55;;;;;;;6.80;4.40;;;16.60;68.70;;;;;;5090731;28;20028;-81
2021/09/21 10:53:22;;;;;;;5.03;3.33;;;16.70;69.80;;;;;;5088004;28;20169;-81
2021/09/21 10:56:18;;;;;;;7.43;3.53;;;16.70;68.60;;;;;;5094154;28;20052;-81
2021/09/21 10:58:55;;;;;;;3.10;2.80;;;16.60;67.90;;;;;;5099032;28;20047;-80
2021/09/21 11:01:21;;;;;;;5.60;3.10;;;16.70;68.60;;;;;;5113167;28;20109;-81
2021/09/21 11:03:47;;;;;;;5.22;3.38;;;16.80;68.70;;;;;;5113040;28;20118;-81
2021/09/21 11:06:14;;;;;;;5.78;3.35;;;16.90;70.60;;;;;;5100048;28;20026;-81
2021/09/21 11:08:41;;;;;;;5.75;3.80;;;17.00;72.10;;;;;;5113804;28;20032;-82
2021/09/21 11:11:08;;;;;;;4.55;3.55;;;17.10;71.60;;;;;;5105399;28;20489;-83
2021/09/21 11:13:35;;;;;;;6.93;3.90;;;17.20;72.30;;;;;;5093573;28;20476;-81
2021/09/21 11:16:05;;;;;;;4.55;3.53;;;17.20;68.70;;;;;;5103517;28;20016;-82
2021/09/21 11:18:31;;;;;;;5.35;3.38;;;17.20;68.60;;;;;;5097973;28;20481;-82
2021/09/21 11:21:00;;;;;;;5.30;3.35;;;17.20;67.10;;;;;;5113690;28;20028;-82
2021/09/21 11:23:28;;;;;;;5.15;3.13;;;17.30;64.50;;;;;;5147653;27;20024;-81
2021/09/21 11:26:00;;;;;;;3.75;3.20;;;17.30;65.70;;;;;;5113788;28;20019;-80
2021/09/21 11:28:28;;;;;;;5.97;3.35;;;17.30;65.20;;;;;;5093078;28;20032;-81
2021/09/21 11:30:56;;;;;;;5.07;3.88;;;17.30;65.50;;;;;;5086134;28;20035;-81
2021/09/21 11:33:28;;;;;;;5.50;3.65;;;17.30;66.70;;;;;;5075158;28;20037;-81
2021/09/21 11:35:55;;;;;;;;;;;17.40;68.40;;;;;;5086883;28;20032;-81
2021/09/21 11:38:23;;;;;;;7.93;3.50;;;17.40;69.70;;;;;;5091311;28;19920;-81
2021/09/21 11:40:51;;;;;;;5.05;3.25;;;17.40;68.90;;;;;;5091746;28;20059;-81
2021/09/21 11:43:17;;;;;;;4.22;3.13;;;17.40;68.20;;;;;;5091967;28;20020;-81
2021/09/21 11:45:47;;;;;;;4.38;3.15;;;17.50;66.50;;;;;;5102263;28;20024;-81
2021/09/21 11:48:14;;;;;;;6.18;3.80;;;17.50;65.40;;;;;;5092928;28;20028;-82
2021/09/21 11:50:41;;;;;;;4.53;3.40;;;17.50;64.70;;;;;;5100886;28;20031;-81
2021/09/21 11:53:09;;;;;;;6.47;3.58;;;17.50;64.20;;;;;;5114298;28;20059;-80
2021/09/21 11:55:38;;;;;;;5.28;3.05;;;17.60;64.90;;;;;;5096511;28;20044;-81
2021/09/21 11:58:05;;;;;;;5.60;3.38;;;17.70;64.50;;;;;;5093120;28;20107;-81
2021/09/21 12:00:33;;;;;;;4.47;3.60;;;17.80;63.70;;;;;;5095724;28;20039;-81
2021/09/21 12:03:04;;;;;;;5.45;3.22;;;17.90;62.20;;;;;;5104272;28;20031;-81
2021/09/21 12:05:31;;;;;;;4.45;3.33;;;18.00;63.50;;;;;;5097536;28;20058;-81
2021/09/21 12:07:59;;;;;;;5.38;3.50;;;18.20;62.80;;;;;;5096205;28;20040;-80
2021/09/21 12:10:27;;;;;;;6.40;3.65;;;18.30;61.80;;;;;;5095769;28;20033;-81
2021/09/21 12:13:26;;;;;;;4.15;3.03;;;18.50;61.40;;;;;;5096864;28;20491;-80
2021/09/21 12:15:58;;;;;;;6.00;3.35;;;18.70;61.50;;;;;;5096135;28;20118;-81
2021/09/21 12:18:26;;;;;;;5.05;3.28;;;18.80;60.70;;;;;;5095891;28;20039;-81
2021/09/21 12:21:10;;;;;;;5.03;3.28;;;19.10;59.30;;;;;;5096234;28;20469;-82
2021/09/21 12:23:40;;;;;;;5.65;3.10;;;19.10;59.00;;;;;;5096802;28;20024;-81
2021/09/21 12:26:08;;;;;;;5.82;3.70;;;18.90;58.80;;;;;;5096653;28;20024;-81
2021/09/21 12:28:42;;;;;;;7.20;3.67;;;18.70;59.30;;;;;;5095037;28;20084;-81
2021/09/21 12:31:19;;;;;;;4.75;3.50;;;18.90;60.00;;;;;;5096366;28;20388;-80
2021/09/21 12:33:48;;;;;;;6.72;3.70;;;19.10;58.00;;;;;;5097045;28;20028;-81
2021/09/21 12:36:23;;;;;;;5.68;3.38;;;19.30;57.90;;;;;;5095641;28;20111;-82
2021/09/21 12:39:15;;;;;;;3.78;3.13;;;19.50;57.10;;;;;;5096799;28;20032;-82
2021/09/21 12:41:44;;;;;;;6.22;3.28;;;19.60;56.70;;;;;;5093726;28;20071;-81
2021/09/21 12:44:15;;;;;;;4.10;3.28;;;19.80;56.70;;;;;;5095571;28;20020;-81
2021/09/21 12:46:43;;;;;;;4.88;3.13;;;19.90;56.00;;;;;;5097098;28;20066;-81
2021/09/21 12:49:15;;;;;;;4.93;3.20;;;20.10;55.40;;;;;;5128807;27;20039;-81
2021/09/21 12:51:47;;;;;;;3.33;2.70;;;20.20;55.10;;;;;;5095423;28;20020;-81
2021/09/21 12:54:17;;;;;;;4.10;3.20;;;20.40;54.90;;;;;;5095490;28;20051;-80
2021/09/21 12:56:46;;;;;;;4.03;3.00;;;20.60;53.40;;;;;;5095447;28;20027;-81
2021/09/21 12:59:14;;;;;;;6.35;3.38;;;20.90;52.30;;;;;;5094246;28;20037;-80